Time,TemperatureF,DewpointF,PressureIn,WindDirection,WindDirectionDegrees,WindSpeedMPH,WindSpeedGustMPH,Humidity,HourlyPrecipIn,Conditions,Clouds,dailyrainin,SoftwareType,DateUTC
2013-03-05 00:07:00,41.0,37.9,29.71,SSE,151,0.0,2.0,89,0.00,,,0.00,meteohub,2013-03-05 00:07:00,
2013-03-05 00:12:00,40.8,37.8,29.71,SSE,151,0.0,4.0,89,0.00,,,0.00,meteohub,2013-03-05 00:12:00,
2013-03-05 00:17:00,40.6,37.6,29.70,SSE,151,0.0,4.0,89,0.00,,,0.00,meteohub,2013-03-05 00:17:00,
2013-03-05 00:22:00,40.5,37.4,29.70,SSE,151,0.0,4.0,89,0.00,,,0.00,meteohub,2013-03-05 00:22:00,
2013-03-05 00:27:00,40.3,37.2,29.70,SSE,151,0.0,2.0,89,0.00,,,0.00,meteohub,2013-03-05 00:27:00,
2013-03-05 00:32:00,40.1,37.0,29.70,SSE,151,0.0,2.0,89,0.00,,,0.00,meteohub,2013-03-05 00:32:00,
2013-03-05 00:37:00,39.9,36.9,29.70,SSE,151,0.0,2.0,89,0.00,,,0.00,meteohub,2013-03-05 00:37:00,
2013-03-05 00:42:00,39.9,36.9,29.70,SSE,151,0.0,1.0,89,0.00,,,0.00,meteohub,2013-03-05 00:42:00,
2013-03-05 00:47:00,39.6,36.5,29.70,SSE,151,0.0,1.0,89,0.00,,,0.00,meteohub,2013-03-05 00:47:00,
2013-03-05 00:52:00,39.4,36.5,29.70,SSE,151,0.0,2.0,89,0.00,,,0.00,meteohub,2013-03-05 00:52:00,
2013-03-05 00:57:00,39.0,36.1,29.70,SSE,151,0.0,2.0,89,0.00,,,0.00,meteohub,2013-03-05 00:57:00,
2013-03-05 01:02:00,38.8,36.0,29.70,SSE,151,0.0,1.0,89,0.00,,,0.00,meteohub,2013-03-05 01:02:00,
2013-03-05 01:07:00,38.7,35.8,29.70,SSE,151,0.0,2.0,89,0.00,,,0.00,meteohub,2013-03-05 01:07:00,
2013-03-05 01:12:00,38.5,35.6,29.70,SSE,151,0.0,2.0,89,0.00,,,0.00,meteohub,2013-03-05 01:12:00,
2013-03-05 01:17:00,38.5,35.6,29.70,SSE,151,0.0,1.0,89,0.00,,,0.00,meteohub,2013-03-05 01:17:00,
2013-03-05 01:22:00,38.3,35.4,29.69,SSE,151,0.0,0.0,89,0.00,,,0.00,meteohub,2013-03-05 01:22:00,
2013-03-05 01:27:00,38.1,35.2,29.69,SSE,151,0.0,0.0,89,0.00,,,0.00,meteohub,2013-03-05 01:27:00,
2013-03-05 01:32:00,37.9,35.1,29.69,SSE,151,0.0,0.0,89,0.00,,,0.00,meteohub,2013-03-05 01:32:00,
2013-03-05 01:42:00,37.8,35.1,29.69,SSE,151,0.0,0.0,90,0.00,,,0.00,meteohub,2013-03-05 01:42:00,
2013-03-05 01:47:00,37.8,35.1,29.69,SSE,151,0.0,0.0,90,0.00,,,0.00,meteohub,2013-03-05 01:47:00,
2013-03-05 01:52:00,37.8,35.1,29.69,SSE,151,0.0,0.0,90,0.00,,,0.00,meteohub,2013-03-05 01:52:00,
2013-03-05 01:57:00,37.8,35.1,29.69,SSE,151,0.0,0.0,90,0.00,,,0.00,meteohub,2013-03-05 01:57:00,
2013-03-05 02:02:00,37.8,35.1,29.69,SSE,151,0.0,0.0,90,0.00,,,0.00,meteohub,2013-03-05 02:02:00,
2013-03-05 02:07:00,37.6,35.2,29.69,SSE,151,0.0,0.0,91,0.00,,,0.00,meteohub,2013-03-05 02:07:00,
2013-03-05 02:12:00,37.6,35.2,29.69,SSE,151,0.0,0.0,91,0.00,,,0.00,meteohub,2013-03-05 02:12:00,
2013-03-05 02:17:00,37.6,35.2,29.69,SSE,151,0.0,0.0,91,0.00,,,0.00,meteohub,2013-03-05 02:17:00,
2013-03-05 02:22:00,37.8,35.4,29.68,SSE,151,0.0,0.0,91,0.00,,,0.00,meteohub,2013-03-05 02:22:00,
2013-03-05 02:27:00,37.8,35.4,29.68,SSE,151,0.0,0.0,91,0.00,,,0.00,meteohub,2013-03-05 02:27:00,
2013-03-05 02:32:00,37.8,35.4,29.68,SSE,151,0.0,0.0,91,0.00,,,0.00,meteohub,2013-03-05 02:32:00,
2013-03-05 02:37:00,37.8,35.4,29.68,SSE,151,1.0,0.0,91,0.00,,,0.00,meteohub,2013-03-05 02:37:00,
2013-03-05 02:42:00,37.8,35.4,29.68,SSE,151,0.0,2.0,91,0.00,,,0.00,meteohub,2013-03-05 02:42:00,
2013-03-05 02:47:00,37.8,35.4,29.68,SSE,151,0.0,2.0,91,0.00,,,0.00,meteohub,2013-03-05 02:47:00,
2013-03-05 02:52:00,37.9,35.6,29.68,SSE,151,0.0,2.0,91,0.00,,,0.00,meteohub,2013-03-05 02:52:00,
2013-03-05 02:57:00,37.9,35.8,29.68,SSE,151,0.0,0.0,92,0.00,,,0.00,meteohub,2013-03-05 02:57:00,
2013-03-05 03:02:00,37.9,35.8,29.67,SSE,151,1.0,0.0,92,0.00,,,0.00,meteohub,2013-03-05 03:02:00,
2013-03-05 03:07:00,37.9,35.8,29.68,SSE,151,1.0,1.0,92,0.00,,,0.00,meteohub,2013-03-05 03:07:00,
2013-03-05 03:12:00,38.1,36.0,29.68,SSE,151,0.0,4.0,92,0.00,,,0.00,meteohub,2013-03-05 03:12:00,
2013-03-05 03:17:00,38.1,36.0,29.68,SSE,151,0.0,4.0,92,0.00,,,0.00,meteohub,2013-03-05 03:17:00,
2013-03-05 03:22:00,38.1,36.0,29.68,SSE,151,0.0,4.0,92,0.00,,,0.00,meteohub,2013-03-05 03:22:00,
2013-03-05 03:27:00,38.1,36.0,29.68,SSE,151,0.0,2.0,92,0.00,,,0.00,meteohub,2013-03-05 03:27:00,
2013-03-05 03:32:00,38.1,36.0,29.67,SSE,151,0.0,1.0,92,0.00,,,0.00,meteohub,2013-03-05 03:32:00,
2013-03-05 03:37:00,38.1,36.0,29.67,SSE,151,0.0,1.0,92,0.00,,,0.00,meteohub,2013-03-05 03:37:00,
2013-03-05 03:42:00,38.1,36.0,29.67,SSE,151,0.0,1.0,92,0.00,,,0.00,meteohub,2013-03-05 03:42:00,
2013-03-05 03:47:00,38.1,36.0,29.67,SSE,151,1.0,1.0,92,0.00,,,0.00,meteohub,2013-03-05 03:47:00,
2013-03-05 03:52:00,38.3,36.1,29.67,SSE,151,0.0,1.0,92,0.00,,,0.00,meteohub,2013-03-05 03:52:00,
2013-03-05 03:57:00,38.3,36.1,29.67,SSE,151,0.0,2.0,92,0.00,,,0.00,meteohub,2013-03-05 03:57:00,
2013-03-05 04:02:00,38.3,36.1,29.66,SSE,151,0.0,2.0,92,0.00,,,0.00,meteohub,2013-03-05 04:02:00,
2013-03-05 04:07:00,38.5,36.3,29.66,SSE,151,0.0,1.0,92,0.00,,,0.00,meteohub,2013-03-05 04:07:00,
2013-03-05 04:12:00,38.5,36.3,29.66,SSE,151,0.0,1.0,92,0.00,,,0.00,meteohub,2013-03-05 04:12:00,
2013-03-05 04:17:00,38.7,36.5,29.66,SSE,151,0.0,0.0,92,0.00,,,0.00,meteohub,2013-03-05 04:17:00,
2013-03-05 04:22:00,38.7,36.5,29.66,SSE,151,0.0,1.0,92,0.00,,,0.00,meteohub,2013-03-05 04:22:00,
2013-03-05 04:27:00,38.7,36.5,29.66,SSE,151,0.0,1.0,92,0.00,,,0.00,meteohub,2013-03-05 04:27:00,
2013-03-05 04:32:00,38.7,36.5,29.65,SSE,151,0.0,2.0,92,0.00,,,0.00,meteohub,2013-03-05 04:32:00,
2013-03-05 04:37:00,38.7,36.5,29.65,SSE,151,0.0,2.0,92,0.00,,,0.00,meteohub,2013-03-05 04:37:00,
2013-03-05 04:42:00,38.5,36.3,29.65,SSE,151,0.0,0.0,92,0.00,,,0.00,meteohub,2013-03-05 04:42:00,
2013-03-05 04:47:00,38.5,36.3,29.65,SSE,151,0.0,0.0,92,0.00,,,0.00,meteohub,2013-03-05 04:47:00,
2013-03-05 04:52:00,38.3,36.1,29.65,SSE,151,0.0,0.0,92,0.00,,,0.00,meteohub,2013-03-05 04:52:00,
2013-03-05 04:57:00,38.1,36.0,29.65,SSE,151,0.0,0.0,92,0.00,,,0.00,meteohub,2013-03-05 04:57:00,
2013-03-05 05:02:00,37.9,35.8,29.66,SSE,151,0.0,0.0,92,0.00,,,0.00,meteohub,2013-03-05 05:02:00,
2013-03-05 05:12:00,37.8,35.6,29.66,SSE,151,1.0,2.0,92,0.00,,,0.00,meteohub,2013-03-05 05:12:00,
2013-03-05 05:17:00,37.6,35.4,29.66,SSE,151,0.0,4.0,92,0.00,,,0.00,meteohub,2013-03-05 05:17:00,
2013-03-05 05:22:00,37.2,35.1,29.66,SSE,151,1.0,4.0,92,0.00,,,0.00,meteohub,2013-03-05 05:22:00,
2013-03-05 05:27:00,37.2,34.9,29.66,SSE,151,0.0,2.0,91,0.00,,,0.00,meteohub,2013-03-05 05:27:00,
2013-03-05 05:32:00,37.0,34.7,29.66,SSE,151,1.0,2.0,91,0.00,,,0.00,meteohub,2013-03-05 05:32:00,
2013-03-05 05:37:00,36.9,34.7,29.66,SSE,151,0.0,2.0,92,0.00,,,0.00,meteohub,2013-03-05 05:37:00,
2013-03-05 05:42:00,36.7,34.5,29.65,SSE,151,0.0,2.0,92,0.00,,,0.00,meteohub,2013-03-05 05:42:00,
2013-03-05 05:52:00,36.5,34.2,29.65,SSE,151,0.0,0.0,91,0.00,,,0.00,meteohub,2013-03-05 05:52:00,
2013-03-05 05:57:00,36.3,34.0,29.65,SSE,151,0.0,0.0,91,0.00,,,0.00,meteohub,2013-03-05 05:57:00,
2013-03-05 06:02:00,36.1,33.8,29.65,SSE,151,0.0,0.0,91,0.00,,,0.00,meteohub,2013-03-05 06:02:00,
2013-03-05 06:07:00,36.1,33.8,29.65,East,80,1.0,8.0,91,0.00,,,0.00,meteohub,2013-03-05 06:07:00,
2013-03-05 06:12:00,36.0,33.6,29.65,East,80,2.0,8.0,91,0.00,,,0.00,meteohub,2013-03-05 06:12:00,
2013-03-05 06:17:00,36.0,33.6,29.65,East,80,0.0,8.0,91,0.00,,,0.00,meteohub,2013-03-05 06:17:00,
2013-03-05 06:22:00,35.8,33.4,29.65,East,80,0.0,6.0,91,0.00,,,0.00,meteohub,2013-03-05 06:22:00,
2013-03-05 06:27:00,35.6,33.3,29.65,East,80,0.0,4.0,91,0.00,,,0.00,meteohub,2013-03-05 06:27:00,
2013-03-05 06:32:00,35.4,33.1,29.65,East,80,0.0,2.0,91,0.00,,,0.00,meteohub,2013-03-05 06:32:00,
2013-03-05 06:37:00,35.4,33.1,29.66,East,80,0.0,0.0,91,0.00,,,0.00,meteohub,2013-03-05 06:37:00,
2013-03-05 06:42:00,35.2,32.9,29.65,East,80,0.0,0.0,91,0.00,,,0.00,meteohub,2013-03-05 06:42:00,
2013-03-05 06:47:00,35.1,32.7,29.65,East,80,0.0,0.0,91,0.00,,,0.00,meteohub,2013-03-05 06:47:00,
2013-03-05 06:52:00,35.1,32.7,29.65,East,80,2.0,2.0,91,0.00,,,0.00,meteohub,2013-03-05 06:52:00,
2013-03-05 06:57:00,34.9,32.5,29.65,East,80,2.0,4.0,91,0.00,,,0.00,meteohub,2013-03-05 06:57:00,
2013-03-05 07:02:00,34.9,32.7,29.65,East,80,4.0,6.0,92,0.00,,,0.00,meteohub,2013-03-05 07:02:00,
2013-03-05 07:07:00,34.9,32.5,29.65,East,81,2.0,8.0,91,0.00,,,0.00,meteohub,2013-03-05 07:07:00,
2013-03-05 07:12:00,34.7,32.5,29.65,East,81,4.0,8.0,92,0.00,,,0.00,meteohub,2013-03-05 07:12:00,
2013-03-05 07:17:00,34.7,32.5,29.65,East,92,6.0,9.0,92,0.00,,,0.00,meteohub,2013-03-05 07:17:00,
2013-03-05 07:22:00,34.9,32.7,29.65,East,84,2.0,9.0,92,0.00,,,0.00,meteohub,2013-03-05 07:22:00,
2013-03-05 07:27:00,34.9,32.7,29.65,East,92,2.0,9.0,92,0.00,,,0.00,meteohub,2013-03-05 07:27:00,
2013-03-05 07:32:00,34.9,32.7,29.65,ENE,75,5.0,9.0,92,0.00,,,0.00,meteohub,2013-03-05 07:32:00,
2013-03-05 07:37:00,34.9,33.1,29.64,ENE,69,4.0,9.0,93,0.00,,,0.00,meteohub,2013-03-05 07:37:00,
2013-03-05 07:42:00,34.7,32.9,29.64,East,84,2.0,8.0,93,0.00,,,0.00,meteohub,2013-03-05 07:42:00,
2013-03-05 07:47:00,34.7,32.5,29.64,ENE,68,4.0,8.0,92,0.00,,,0.00,meteohub,2013-03-05 07:47:00,
2013-03-05 07:52:00,34.5,32.4,29.64,East,85,4.0,8.0,92,0.00,,,0.00,meteohub,2013-03-05 07:52:00,
2013-03-05 07:57:00,34.5,32.7,29.64,ENE,70,6.0,8.0,93,0.00,,,0.00,meteohub,2013-03-05 07:57:00,
2013-03-05 08:02:00,34.5,32.7,29.64,ENE,62,4.0,10.0,93,0.00,,,0.00,meteohub,2013-03-05 08:02:00,
2013-03-05 08:07:00,34.5,32.7,29.65,NE,54,4.0,10.0,93,0.00,,,0.00,meteohub,2013-03-05 08:07:00,
2013-03-05 08:12:00,34.7,32.9,29.65,ENE,70,5.0,10.0,93,0.00,,,0.00,meteohub,2013-03-05 08:12:00,
2013-03-05 08:17:00,34.7,32.9,29.65,ENE,70,4.0,9.0,93,0.00,,,0.00,meteohub,2013-03-05 08:17:00,
2013-03-05 08:22:00,34.9,33.1,29.65,NE,47,4.0,9.0,93,0.00,,,0.00,meteohub,2013-03-05 08:22:00,
2013-03-05 08:27:00,34.9,33.1,29.65,ENE,71,5.0,6.0,93,0.00,,,0.00,meteohub,2013-03-05 08:27:00,
2013-03-05 08:32:00,35.1,33.3,29.65,ENE,67,2.0,6.0,93,0.00,,,0.00,meteohub,2013-03-05 08:32:00,
2013-03-05 08:37:00,35.2,33.4,29.65,East,81,2.0,6.0,93,0.00,,,0.00,meteohub,2013-03-05 08:37:00,
2013-03-05 08:42:00,35.2,33.4,29.65,East,81,1.0,8.0,93,0.00,,,0.00,meteohub,2013-03-05 08:42:00,
2013-03-05 08:47:00,35.4,33.8,29.65,East,81,2.0,8.0,94,0.00,,,0.00,meteohub,2013-03-05 08:47:00,
2013-03-05 08:52:00,35.8,34.2,29.64,ENE,78,5.0,8.0,94,0.00,,,0.00,meteohub,2013-03-05 08:52:00,
2013-03-05 08:57:00,36.0,34.2,29.64,ENE,76,5.0,6.0,93,0.00,,,0.00,meteohub,2013-03-05 08:57:00,
2013-03-05 09:02:00,36.1,34.5,29.64,East,82,1.0,6.0,94,0.00,,,0.00,meteohub,2013-03-05 09:02:00,
2013-03-05 09:07:00,36.3,34.5,29.64,ENE,78,4.0,6.0,93,0.00,,,0.00,meteohub,2013-03-05 09:07:00,
2013-03-05 09:12:00,36.9,35.1,29.64,East,88,6.0,8.0,93,0.00,,,0.00,meteohub,2013-03-05 09:12:00,
2013-03-05 09:17:00,37.2,35.4,29.64,ENE,77,6.0,9.0,93,0.00,,,0.00,meteohub,2013-03-05 09:17:00,
2013-03-05 09:22:00,37.4,35.6,29.63,East,80,6.0,9.0,93,0.00,,,0.00,meteohub,2013-03-05 09:22:00,
2013-03-05 09:27:00,37.9,36.1,29.63,ENE,78,6.0,9.0,93,0.00,,,0.00,meteohub,2013-03-05 09:27:00,
2013-03-05 09:32:00,38.1,36.0,29.63,ENE,66,0.0,9.0,92,0.00,,,0.00,meteohub,2013-03-05 09:32:00,
2013-03-05 09:37:00,38.7,36.5,29.63,ENE,72,5.0,9.0,92,0.00,,,0.00,meteohub,2013-03-05 09:37:00,
2013-03-05 09:42:00,38.8,36.5,29.63,East,85,6.0,9.0,91,0.00,,,0.00,meteohub,2013-03-05 09:42:00,
2013-03-05 09:47:00,39.2,36.9,29.63,East,90,6.0,10.0,91,0.00,,,0.00,meteohub,2013-03-05 09:47:00,
2013-03-05 09:52:00,39.7,37.4,29.63,ENE,76,4.0,10.0,91,0.00,,,0.00,meteohub,2013-03-05 09:52:00,
2013-03-05 09:57:00,40.3,37.6,29.63,ENE,71,5.0,10.0,90,0.00,,,0.00,meteohub,2013-03-05 09:57:00,
2013-03-05 10:07:00,41.2,38.1,29.62,ENE,76,9.0,9.0,89,0.00,,,0.00,meteohub,2013-03-05 10:07:00,
2013-03-05 10:12:00,41.5,38.3,29.62,ESE,105,4.0,11.0,88,0.00,,,0.00,meteohub,2013-03-05 10:12:00,
2013-03-05 10:17:00,41.5,38.3,29.62,ENE,69,4.0,11.0,88,0.00,,,0.00,meteohub,2013-03-05 10:17:00,
2013-03-05 10:22:00,41.9,38.7,29.62,ENE,76,2.0,11.0,88,0.00,,,0.00,meteohub,2013-03-05 10:22:00,
2013-03-05 10:27:00,42.3,38.7,29.62,East,80,1.0,10.0,87,0.00,,,0.00,meteohub,2013-03-05 10:27:00,
2013-03-05 10:32:00,42.6,39.0,29.62,ENE,77,6.0,10.0,87,0.00,,,0.00,meteohub,2013-03-05 10:32:00,
2013-03-05 10:37:00,42.8,38.8,29.62,ENE,74,4.0,10.0,86,0.00,,,0.00,meteohub,2013-03-05 10:37:00,
2013-03-05 10:42:00,43.2,39.2,29.62,East,81,8.0,10.0,86,0.00,,,0.00,meteohub,2013-03-05 10:42:00,
2013-03-05 10:47:00,43.7,39.6,29.62,East,98,8.0,13.0,85,0.00,,,0.00,meteohub,2013-03-05 10:47:00,
2013-03-05 10:52:00,44.1,39.9,29.62,East,101,6.0,13.0,85,0.00,,,0.00,meteohub,2013-03-05 10:52:00,
2013-03-05 10:57:00,44.4,39.9,29.62,East,88,6.0,13.0,84,0.00,,,0.00,meteohub,2013-03-05 10:57:00,
2013-03-05 11:02:00,44.8,40.3,29.62,ESE,113,5.0,11.0,84,0.00,,,0.00,meteohub,2013-03-05 11:02:00,
2013-03-05 11:07:00,45.1,39.9,29.62,ESE,113,10.0,13.0,82,0.00,,,0.00,meteohub,2013-03-05 11:07:00,
2013-03-05 11:12:00,45.5,40.3,29.62,East,90,11.0,13.0,82,0.00,,,0.00,meteohub,2013-03-05 11:12:00,
2013-03-05 11:17:00,45.9,40.6,29.62,ENE,73,11.0,13.0,82,0.00,,,0.00,meteohub,2013-03-05 11:17:00,
2013-03-05 11:22:00,45.9,40.3,29.62,SE,124,8.0,13.0,81,0.00,,,0.00,meteohub,2013-03-05 11:22:00,
2013-03-05 11:27:00,45.3,39.9,29.62,ENE,76,4.0,14.0,81,0.00,,,0.00,meteohub,2013-03-05 11:27:00,
2013-03-05 11:32:00,45.1,39.9,29.61,East,101,6.0,14.0,82,0.00,,,0.00,meteohub,2013-03-05 11:32:00,
2013-03-05 11:37:00,45.3,40.1,29.61,East,83,6.0,14.0,82,0.00,,,0.00,meteohub,2013-03-05 11:37:00,
2013-03-05 11:42:00,45.9,40.6,29.61,East,100,10.0,13.0,82,0.00,,,0.00,meteohub,2013-03-05 11:42:00,
2013-03-05 11:47:00,46.0,40.8,29.61,East,82,6.0,13.0,82,0.00,,,0.00,meteohub,2013-03-05 11:47:00,
2013-03-05 11:52:00,46.0,40.5,29.60,ENE,69,6.0,13.0,81,0.00,,,0.00,meteohub,2013-03-05 11:52:00,
2013-03-05 11:57:00,46.0,40.5,29.60,East,91,6.0,11.0,81,0.00,,,0.00,meteohub,2013-03-05 11:57:00,
2013-03-05 12:02:00,46.0,40.5,29.60,East,84,9.0,13.0,81,0.00,,,0.00,meteohub,2013-03-05 12:02:00,
2013-03-05 12:07:00,46.0,40.5,29.60,East,100,10.0,13.0,81,0.00,,,0.00,meteohub,2013-03-05 12:07:00,
2013-03-05 12:12:00,46.0,40.5,29.60,East,94,9.0,13.0,81,0.00,,,0.00,meteohub,2013-03-05 12:12:00,
2013-03-05 12:17:00,46.0,40.3,29.60,East,94,8.0,13.0,80,0.00,,,0.00,meteohub,2013-03-05 12:17:00,
2013-03-05 12:22:00,46.0,40.3,29.60,East,88,9.0,13.0,80,0.00,,,0.00,meteohub,2013-03-05 12:22:00,
2013-03-05 12:27:00,46.2,40.5,29.60,East,101,4.0,13.0,80,0.00,,,0.00,meteohub,2013-03-05 12:27:00,
2013-03-05 12:32:00,46.2,40.1,29.60,ENE,74,11.0,13.0,79,0.00,,,0.00,meteohub,2013-03-05 12:32:00,
2013-03-05 12:37:00,46.2,40.5,29.59,East,92,9.0,13.0,80,0.00,,,0.00,meteohub,2013-03-05 12:37:00,
2013-03-05 12:42:00,46.6,40.8,29.60,East,90,8.0,14.0,80,0.00,,,0.00,meteohub,2013-03-05 12:42:00,
2013-03-05 12:47:00,46.9,40.8,29.60,ENE,74,11.0,14.0,79,0.00,,,0.00,meteohub,2013-03-05 12:47:00,
2013-03-05 12:52:00,47.1,41.0,29.59,ESE,103,11.0,14.0,79,0.00,,,0.00,meteohub,2013-03-05 12:52:00,
2013-03-05 12:57:00,46.9,40.8,29.60,East,82,14.0,16.0,79,0.00,,,0.00,meteohub,2013-03-05 12:57:00,
2013-03-05 13:02:00,46.9,40.5,29.59,East,82,13.0,16.0,78,0.00,,,0.00,meteohub,2013-03-05 13:02:00,
2013-03-05 13:07:00,46.9,40.8,29.59,East,98,11.0,16.0,79,0.00,,,0.00,meteohub,2013-03-05 13:07:00,
2013-03-05 13:12:00,46.8,40.3,29.59,East,100,9.0,16.0,78,0.00,,,0.00,meteohub,2013-03-05 13:12:00,
2013-03-05 13:17:00,46.6,40.5,29.58,ESE,102,10.0,16.0,79,0.00,,,0.00,meteohub,2013-03-05 13:17:00,
2013-03-05 13:22:00,46.6,40.5,29.58,East,98,6.0,16.0,79,0.00,,,0.00,meteohub,2013-03-05 13:22:00,
2013-03-05 13:27:00,46.6,40.8,29.58,East,90,8.0,16.0,80,0.00,,,0.00,meteohub,2013-03-05 13:27:00,
2013-03-05 13:32:00,47.1,41.0,29.58,East,100,8.0,16.0,79,0.00,,,0.00,meteohub,2013-03-05 13:32:00,
2013-03-05 13:37:00,48.0,41.5,29.58,ESE,105,10.0,14.0,78,0.00,,,0.00,meteohub,2013-03-05 13:37:00,
2013-03-05 13:42:00,48.6,42.1,29.58,SE,125,5.0,14.0,78,0.00,,,0.00,meteohub,2013-03-05 13:42:00,
2013-03-05 13:47:00,48.6,41.7,29.57,East,101,11.0,14.0,77,0.00,,,0.00,meteohub,2013-03-05 13:47:00,
2013-03-05 13:52:00,48.2,41.4,29.57,East,81,11.0,14.0,77,0.00,,,0.00,meteohub,2013-03-05 13:52:00,
2013-03-05 13:57:00,48.4,41.5,29.57,ESE,107,5.0,16.0,77,0.00,,,0.00,meteohub,2013-03-05 13:57:00,
2013-03-05 14:02:00,48.7,41.9,29.57,ESE,103,6.0,16.0,77,0.00,,,0.00,meteohub,2013-03-05 14:02:00,
2013-03-05 14:07:00,48.9,42.1,29.56,East,97,9.0,18.0,77,0.00,,,0.00,meteohub,2013-03-05 14:07:00,
2013-03-05 14:12:00,49.5,42.3,29.57,ESE,111,9.0,18.0,76,0.00,,,0.00,meteohub,2013-03-05 14:12:00,
2013-03-05 14:17:00,49.5,41.9,29.56,ESE,103,9.0,18.0,75,0.00,,,0.00,meteohub,2013-03-05 14:17:00,
2013-03-05 14:22:00,49.1,41.9,29.56,East,98,9.0,18.0,76,0.00,,,0.00,meteohub,2013-03-05 14:22:00,
2013-03-05 14:27:00,48.7,41.9,29.56,East,96,10.0,16.0,77,0.00,,,0.00,meteohub,2013-03-05 14:27:00,
2013-03-05 14:32:00,48.9,42.1,29.56,East,91,11.0,16.0,77,0.00,,,0.00,meteohub,2013-03-05 14:32:00,
2013-03-05 14:37:00,49.3,42.1,29.55,East,96,9.0,16.0,76,0.00,,,0.00,meteohub,2013-03-05 14:37:00,
2013-03-05 14:42:00,49.5,42.3,29.55,ESE,103,13.0,18.0,76,0.00,,,0.00,meteohub,2013-03-05 14:42:00,
2013-03-05 14:47:00,49.3,42.4,29.55,ESE,120,9.0,18.0,77,0.00,,,0.00,meteohub,2013-03-05 14:47:00,
2013-03-05 14:52:00,49.5,42.6,29.55,ESE,109,6.0,18.0,77,0.00,,,0.00,meteohub,2013-03-05 14:52:00,
2013-03-05 14:57:00,49.6,42.8,29.55,ESE,107,6.0,14.0,77,0.00,,,0.00,meteohub,2013-03-05 14:57:00,
2013-03-05 15:02:00,49.8,43.0,29.55,ESE,111,6.0,14.0,77,0.00,,,0.00,meteohub,2013-03-05 15:02:00,
2013-03-05 15:07:00,49.8,42.6,29.55,East,97,13.0,13.0,76,0.00,,,0.00,meteohub,2013-03-05 15:07:00,
2013-03-05 15:12:00,50.0,42.8,29.55,East,101,8.0,16.0,76,0.00,,,0.00,meteohub,2013-03-05 15:12:00,
2013-03-05 15:17:00,50.2,43.0,29.55,ESE,113,11.0,16.0,76,0.00,,,0.00,meteohub,2013-03-05 15:17:00,
2013-03-05 15:22:00,49.8,42.3,29.55,ESE,103,10.0,14.0,75,0.00,,,0.00,meteohub,2013-03-05 15:22:00,
2013-03-05 15:27:00,49.5,42.3,29.54,East,84,9.0,16.0,76,0.00,,,0.00,meteohub,2013-03-05 15:27:00,
2013-03-05 15:32:00,49.5,42.3,29.54,ENE,70,5.0,16.0,76,0.00,,,0.00,meteohub,2013-03-05 15:32:00,
2013-03-05 15:37:00,49.5,42.3,29.54,ESE,107,6.0,16.0,76,0.00,,,0.00,meteohub,2013-03-05 15:37:00,
2013-03-05 15:42:00,49.6,42.8,29.54,ENE,68,11.0,13.0,77,0.00,,,0.00,meteohub,2013-03-05 15:42:00,
2013-03-05 15:47:00,49.8,43.0,29.53,ENE,71,10.0,13.0,77,0.00,,,0.00,meteohub,2013-03-05 15:47:00,
2013-03-05 15:52:00,49.8,42.6,29.53,ENE,70,9.0,15.0,76,0.00,,,0.00,meteohub,2013-03-05 15:52:00,
2013-03-05 15:57:00,49.8,42.6,29.53,East,89,8.0,16.0,76,0.00,,,0.00,meteohub,2013-03-05 15:57:00,
2013-03-05 16:02:00,49.6,42.4,29.53,East,85,6.0,16.0,76,0.00,,,0.00,meteohub,2013-03-05 16:02:00,
2013-03-05 16:07:00,49.6,42.4,29.53,East,94,6.0,14.0,76,0.00,,,0.00,meteohub,2013-03-05 16:07:00,
2013-03-05 16:12:00,49.6,42.4,29.53,East,82,10.0,14.0,76,0.00,,,0.00,meteohub,2013-03-05 16:12:00,
2013-03-05 16:17:00,49.5,42.3,29.52,East,80,9.0,14.0,76,0.00,,,0.00,meteohub,2013-03-05 16:17:00,
2013-03-05 16:22:00,49.5,42.3,29.53,East,84,4.0,14.0,76,0.00,,,0.00,meteohub,2013-03-05 16:22:00,
2013-03-05 16:27:00,49.5,42.3,29.52,East,89,8.0,14.0,76,0.00,,,0.00,meteohub,2013-03-05 16:27:00,
2013-03-05 16:32:00,49.5,42.6,29.53,East,94,2.0,13.0,77,0.00,,,0.00,meteohub,2013-03-05 16:32:00,
2013-03-05 16:37:00,49.3,42.4,29.53,East,100,2.0,13.0,77,0.00,,,0.00,meteohub,2013-03-05 16:37:00,
2013-03-05 16:42:00,49.3,42.4,29.53,East,98,2.0,13.0,77,0.00,,,0.00,meteohub,2013-03-05 16:42:00,
2013-03-05 16:47:00,49.3,42.4,29.53,ESE,107,2.0,8.0,77,0.00,,,0.00,meteohub,2013-03-05 16:47:00,
2013-03-05 16:52:00,49.3,42.4,29.54,ESE,107,1.0,9.0,77,0.00,,,0.00,meteohub,2013-03-05 16:52:00,
2013-03-05 16:57:00,49.3,42.8,29.54,ESE,106,5.0,9.0,78,0.00,,,0.00,meteohub,2013-03-05 16:57:00,
2013-03-05 17:02:00,49.1,42.6,29.54,East,94,4.0,9.0,78,0.00,,,0.00,meteohub,2013-03-05 17:02:00,
2013-03-05 17:12:00,48.9,42.4,29.54,ESE,103,2.0,9.0,78,0.00,,,0.00,meteohub,2013-03-05 17:12:00,
2013-03-05 17:17:00,48.9,42.6,29.54,ESE,104,5.0,9.0,79,0.00,,,0.00,meteohub,2013-03-05 17:17:00,
2013-03-05 17:22:00,48.9,42.6,29.54,ESE,102,4.0,9.0,79,0.00,,,0.00,meteohub,2013-03-05 17:22:00,
2013-03-05 17:27:00,48.9,43.0,29.54,ESE,107,2.0,9.0,80,0.00,,,0.00,meteohub,2013-03-05 17:27:00,
2013-03-05 17:32:00,48.9,43.0,29.53,ESE,105,1.0,9.0,80,0.00,,,0.00,meteohub,2013-03-05 17:32:00,
2013-03-05 17:37:00,48.9,43.3,29.53,East,96,6.0,9.0,81,0.00,,,0.00,meteohub,2013-03-05 17:37:00,
2013-03-05 17:42:00,48.7,43.2,29.53,East,101,6.0,10.0,81,0.00,,,0.00,meteohub,2013-03-05 17:42:00,
2013-03-05 17:47:00,48.7,43.5,29.53,East,98,6.0,11.0,82,0.00,,,0.00,meteohub,2013-03-05 17:47:00,
2013-03-05 17:52:00,48.7,43.5,29.53,ESE,113,5.0,11.0,82,0.00,,,0.00,meteohub,2013-03-05 17:52:00,
2013-03-05 17:57:00,48.6,43.7,29.53,East,100,4.0,11.0,83,0.00,,,0.00,meteohub,2013-03-05 17:57:00,
2013-03-05 18:02:00,48.6,43.9,29.53,East,95,6.0,9.0,84,0.00,,,0.00,meteohub,2013-03-05 18:02:00,
2013-03-05 18:07:00,48.4,43.7,29.52,ESE,109,5.0,9.0,84,0.00,,,0.00,meteohub,2013-03-05 18:07:00,
2013-03-05 18:12:00,48.2,43.9,29.52,ENE,78,9.0,11.0,85,0.01,,,0.01,meteohub,2013-03-05 18:12:00,
2013-03-05 18:17:00,48.0,44.1,29.52,East,101,4.0,11.0,86,0.01,,,0.01,meteohub,2013-03-05 18:17:00,
2013-03-05 18:22:00,47.8,43.9,29.52,East,96,4.0,11.0,86,0.01,,,0.01,meteohub,2013-03-05 18:22:00,
2013-03-05 18:27:00,47.8,43.9,29.52,ESE,122,5.0,10.0,86,0.01,,,0.01,meteohub,2013-03-05 18:27:00,
2013-03-05 18:32:00,47.7,44.1,29.53,ESE,102,0.0,10.0,87,0.02,,,0.02,meteohub,2013-03-05 18:32:00,
2013-03-05 18:37:00,47.7,44.1,29.53,ESE,108,4.0,9.0,87,0.02,,,0.02,meteohub,2013-03-05 18:37:00,
2013-03-05 18:42:00,47.7,44.1,29.53,ESE,106,2.0,6.0,87,0.02,,,0.02,meteohub,2013-03-05 18:42:00,
2013-03-05 18:47:00,47.5,44.1,29.53,ENE,66,4.0,6.0,88,0.03,,,0.03,meteohub,2013-03-05 18:47:00,
2013-03-05 18:52:00,47.5,44.1,29.54,East,94,2.0,6.0,88,0.03,,,0.03,meteohub,2013-03-05 18:52:00,
2013-03-05 18:57:00,47.3,43.9,29.54,SE,126,1.0,6.0,88,0.03,,,0.03,meteohub,2013-03-05 18:57:00,
2013-03-05 19:02:00,47.1,44.1,29.54,ESE,106,4.0,6.0,89,0.03,,,0.03,meteohub,2013-03-05 19:02:00,
2013-03-05 19:07:00,47.1,44.1,29.54,East,81,4.0,6.0,89,0.02,,,0.03,meteohub,2013-03-05 19:07:00,
2013-03-05 19:12:00,46.9,43.9,29.54,ENE,74,5.0,8.0,89,0.03,,,0.04,meteohub,2013-03-05 19:12:00,
2013-03-05 19:17:00,46.9,44.2,29.54,East,80,4.0,9.0,90,0.03,,,0.04,meteohub,2013-03-05 19:17:00,
2013-03-05 19:22:00,46.8,44.1,29.54,ENE,73,6.0,9.0,90,0.04,,,0.05,meteohub,2013-03-05 19:22:00,
2013-03-05 19:27:00,46.6,43.9,29.54,East,94,8.0,10.0,90,0.04,,,0.05,meteohub,2013-03-05 19:27:00,
2013-03-05 19:32:00,46.4,43.7,29.54,East,92,8.0,11.0,90,0.03,,,0.05,meteohub,2013-03-05 19:32:00,
2013-03-05 19:37:00,46.2,43.5,29.54,East,89,6.0,11.0,90,0.02,,,0.05,meteohub,2013-03-05 19:37:00,
2013-03-05 19:42:00,46.0,43.5,29.54,East,101,4.0,11.0,91,0.02,,,0.05,meteohub,2013-03-05 19:42:00,
2013-03-05 19:47:00,46.0,43.5,29.54,East,84,6.0,11.0,91,0.02,,,0.06,meteohub,2013-03-05 19:47:00,
2013-03-05 19:52:00,45.9,43.3,29.54,ENE,74,5.0,10.0,91,0.02,,,0.06,meteohub,2013-03-05 19:52:00,
2013-03-05 19:57:00,45.9,43.3,29.54,ENE,77,5.0,10.0,91,0.02,,,0.06,meteohub,2013-03-05 19:57:00,
2013-03-05 20:02:00,45.7,43.2,29.54,East,85,6.0,10.0,91,0.02,,,0.06,meteohub,2013-03-05 20:02:00,
2013-03-05 20:07:00,45.5,43.0,29.54,East,81,2.0,11.0,91,0.02,,,0.06,meteohub,2013-03-05 20:07:00,
2013-03-05 20:12:00,45.3,42.8,29.54,ENE,78,5.0,11.0,91,0.02,,,0.06,meteohub,2013-03-05 20:12:00,
2013-03-05 20:17:00,45.3,42.8,29.54,ENE,65,4.0,11.0,91,0.02,,,0.06,meteohub,2013-03-05 20:17:00,
2013-03-05 20:22:00,45.1,43.0,29.54,East,88,9.0,11.0,92,0.02,,,0.06,meteohub,2013-03-05 20:22:00,
2013-03-05 20:27:00,45.1,43.0,29.54,ENE,75,6.0,13.0,92,0.02,,,0.06,meteohub,2013-03-05 20:27:00,
2013-03-05 20:32:00,45.0,42.8,29.54,ENE,76,6.0,13.0,92,0.02,,,0.06,meteohub,2013-03-05 20:32:00,
2013-03-05 20:42:00,45.0,42.8,29.54,ENE,63,10.0,13.0,92,0.02,,,0.06,meteohub,2013-03-05 20:42:00,
2013-03-05 20:47:00,45.0,42.8,29.53,East,80,10.0,13.0,92,0.01,,,0.06,meteohub,2013-03-05 20:47:00,
2013-03-05 20:52:00,45.0,42.8,29.54,East,92,9.0,13.0,92,0.02,,,0.07,meteohub,2013-03-05 20:52:00,
2013-03-05 20:57:00,44.8,42.6,29.54,East,84,6.0,13.0,92,0.02,,,0.07,meteohub,2013-03-05 20:57:00,
2013-03-05 21:02:00,44.8,42.8,29.53,East,90,6.0,11.0,93,0.02,,,0.07,meteohub,2013-03-05 21:02:00,
2013-03-05 21:07:00,44.8,42.6,29.53,East,88,6.0,11.0,92,0.01,,,0.07,meteohub,2013-03-05 21:07:00,
2013-03-05 21:12:00,44.6,42.6,29.53,East,91,6.0,15.0,93,0.01,,,0.07,meteohub,2013-03-05 21:12:00,
2013-03-05 21:17:00,44.4,42.4,29.53,NE,50,4.0,15.0,93,0.02,,,0.08,meteohub,2013-03-05 21:17:00,
2013-03-05 21:22:00,44.4,42.4,29.53,ENE,76,6.0,11.0,93,0.02,,,0.08,meteohub,2013-03-05 21:22:00,
2013-03-05 21:27:00,44.4,42.4,29.53,ENE,77,10.0,11.0,93,0.02,,,0.08,meteohub,2013-03-05 21:27:00,
2013-03-05 21:32:00,44.2,42.3,29.53,East,82,9.0,13.0,93,0.02,,,0.08,meteohub,2013-03-05 21:32:00,
2013-03-05 21:37:00,44.2,42.3,29.53,East,86,2.0,13.0,93,0.02,,,0.08,meteohub,2013-03-05 21:37:00,
2013-03-05 21:42:00,44.1,42.1,29.54,ENE,78,4.0,13.0,93,0.02,,,0.08,meteohub,2013-03-05 21:42:00,
2013-03-05 21:47:00,44.1,42.1,29.54,East,88,2.0,11.0,93,0.01,,,0.08,meteohub,2013-03-05 21:47:00,
2013-03-05 21:52:00,44.1,42.1,29.54,ESE,112,5.0,10.0,93,0.02,,,0.09,meteohub,2013-03-05 21:52:00,
2013-03-05 21:57:00,43.9,41.9,29.54,ENE,68,5.0,10.0,93,0.02,,,0.09,meteohub,2013-03-05 21:57:00,
2013-03-05 22:02:00,43.9,41.9,29.54,East,93,4.0,10.0,93,0.02,,,0.09,meteohub,2013-03-05 22:02:00,
2013-03-05 22:07:00,43.5,41.7,29.53,ESE,107,4.0,9.0,93,0.02,,,0.09,meteohub,2013-03-05 22:07:00,
2013-03-05 22:12:00,43.5,41.7,29.53,East,95,1.0,9.0,93,0.02,,,0.09,meteohub,2013-03-05 22:12:00,
2013-03-05 22:17:00,43.3,41.5,29.53,NE,49,2.0,9.0,93,0.02,,,0.09,meteohub,2013-03-05 22:17:00,
2013-03-05 22:22:00,43.3,41.5,29.53,East,89,4.0,8.0,93,0.02,,,0.09,meteohub,2013-03-05 22:22:00,
2013-03-05 22:27:00,43.3,41.5,29.53,ENE,77,4.0,8.0,93,0.02,,,0.10,meteohub,2013-03-05 22:27:00,
2013-03-05 22:32:00,43.2,41.4,29.53,ENE,71,4.0,9.0,93,0.02,,,0.10,meteohub,2013-03-05 22:32:00,
2013-03-05 22:37:00,43.2,41.4,29.53,ENE,68,1.0,9.0,93,0.02,,,0.10,meteohub,2013-03-05 22:37:00,
2013-03-05 22:42:00,43.2,41.4,29.52,ENE,65,5.0,9.0,93,0.02,,,0.10,meteohub,2013-03-05 22:42:00,
2013-03-05 22:47:00,43.0,41.2,29.52,ENE,74,4.0,8.0,93,0.02,,,0.10,meteohub,2013-03-05 22:47:00,
2013-03-05 22:52:00,43.0,41.2,29.52,ENE,74,5.0,9.0,93,0.02,,,0.10,meteohub,2013-03-05 22:52:00,
2013-03-05 22:57:00,43.0,41.2,29.52,East,82,9.0,10.0,93,0.02,,,0.10,meteohub,2013-03-05 22:57:00,
2013-03-05 23:02:00,42.8,41.0,29.52,ENE,77,4.0,11.0,93,0.02,,,0.10,meteohub,2013-03-05 23:02:00,
2013-03-05 23:07:00,42.6,40.8,29.52,ENE,74,4.0,11.0,93,0.02,,,0.10,meteohub,2013-03-05 23:07:00,
2013-03-05 23:12:00,42.6,40.8,29.52,East,84,9.0,11.0,93,0.01,,,0.10,meteohub,2013-03-05 23:12:00,
2013-03-05 23:17:00,42.6,40.8,29.52,East,96,8.0,13.0,93,0.01,,,0.10,meteohub,2013-03-05 23:17:00,
2013-03-05 23:22:00,42.6,40.8,29.52,East,88,2.0,13.0,93,0.01,,,0.10,meteohub,2013-03-05 23:22:00,
2013-03-05 23:27:00,42.4,40.6,29.52,East,89,4.0,13.0,93,0.00,,,0.10,meteohub,2013-03-05 23:27:00,
2013-03-05 23:32:00,42.4,40.6,29.52,East,101,8.0,11.0,93,0.00,,,0.10,meteohub,2013-03-05 23:32:00,
2013-03-05 23:37:00,42.4,40.6,29.52,East,89,6.0,11.0,93,0.00,,,0.10,meteohub,2013-03-05 23:37:00,
2013-03-05 23:42:00,42.4,40.6,29.52,ENE,73,9.0,11.0,93,0.00,,,0.10,meteohub,2013-03-05 23:42:00,
2013-03-05 23:47:00,42.3,40.5,29.52,ENE,74,6.0,11.0,93,0.00,,,0.10,meteohub,2013-03-05 23:47:00,
2013-03-05 23:52:00,42.3,40.6,29.51,ENE,67,9.0,11.0,94,0.00,,,0.10,meteohub,2013-03-05 23:52:00,
2013-03-05 23:57:00,42.3,40.6,29.51,ESE,105,4.0,11.0,94,0.00,,,0.10,meteohub,2013-03-05 23:57:00,